Time;durP1;ratioP1;P1;durP2;ratioP2;P2;SDS_P1;SDS_P2;PMS_P1;PMS_P2;Temp;Humidity;BMP_temperature;BMP_pressure;BME280_temperature;BME280_humidity;BME280_pressure;Samples;Min_cycle;Max_cycle;Signal;HPM_P1;HPM_P2
2023/12/22 00:02:57;;;;;;;9.30;2.40;;;5.00;1.00;;;;;;8356794;28;20185;-66
2023/12/22 00:06:58;;;;;;;8.90;2.10;;;4.70;1.00;;;;;;8365183;28;20483;-67
2023/12/22 00:10:59;;;;;;;12.90;1.90;;;4.50;1.00;;;;;;8363617;28;20204;-64
2023/12/22 00:15:00;;;;;;;8.93;2.07;;;4.40;1.00;;;;;;8357442;28;20230;-66
2023/12/22 00:19:01;;;;;;;10.37;2.13;;;4.40;1.00;;;;;;8363646;28;20343;-64
2023/12/22 00:23:02;;;;;;;11.00;2.73;;;4.40;1.00;;;;;;8359137;28;20267;-64
2023/12/22 00:27:03;;;;;;;7.23;1.67;;;4.40;1.00;;;;;;8368364;28;20187;-65
2023/12/22 00:31:03;;;;;;;10.97;2.00;;;4.40;1.00;;;;;;8356755;28;20181;-67
2023/12/22 00:35:05;;;;;;;9.40;2.57;;;4.30;1.00;;;;;;8357933;28;20212;-63
2023/12/22 13:33:11;;;;;;;4.60;1.43;;;4.10;99.90;;;;;;8316134;28;20583;-68
2023/12/22 13:37:12;;;;;;;3.03;1.00;;;4.20;99.90;;;;;;8308063;28;20255;-67
2023/12/22 13:41:13;;;;;;;3.13;1.23;;;4.10;99.90;;;;;;8320782;28;20225;-70
2023/12/22 13:45:14;;;;;;;3.23;1.10;;;4.10;99.90;;;;;;8326577;28;20187;-69
2023/12/22 13:49:15;;;;;;;7.23;1.30;;;4.00;99.90;;;;;;8326215;28;20185;-66
2023/12/22 13:53:16;;;;;;;7.90;1.23;;;4.10;99.90;;;;;;8296578;28;20231;-71
2023/12/22 13:57:23;;;;;;;6.23;1.43;;;4.10;99.90;;;;;;8267782;28;21079;-67
2023/12/22 14:01:24;;;;;;;5.23;1.60;;;4.10;99.90;;;;;;8271510;28;20195;-66
2023/12/22 14:05:26;;;;;;;8.47;1.60;;;4.00;99.90;;;;;;8246593;28;20222;-68
2023/12/22 14:09:31;;;;;;;4.30;1.53;;;3.90;99.90;;;;;;8243877;28;20309;-71
2023/12/22 16:42:08;;;;;;;4.20;1.10;;;2.60;1.00;;;;;;8193367;28;20239;-66
2023/12/22 16:46:09;;;;;;;3.63;1.10;;;2.80;99.90;;;;;;8203440;28;20192;-67
2023/12/22 16:50:10;;;;;;;4.93;1.47;;;2.80;99.90;;;;;;8198384;28;20224;-65
2023/12/22 16:54:11;;;;;;;2.97;0.80;;;2.80;99.90;;;;;;8192459;28;20248;-67
2023/12/22 16:58:11;;;;;;;3.47;1.00;;;2.90;99.90;;;;;;8202617;28;20185;-65
2023/12/22 17:02:12;;;;;;;4.93;1.63;;;2.90;99.90;;;;;;8193579;28;20184;-66
2023/12/22 17:06:13;;;;;;;5.70;1.57;;;2.90;99.90;;;;;;8197193;28;20235;-66
2023/12/22 17:10:15;;;;;;;4.73;1.00;;;2.90;99.90;;;;;;8193768;28;20239;-68
2023/12/22 17:14:15;;;;;;;1.53;0.87;;;2.80;99.90;;;;;;8201091;28;20199;-65
2023/12/22 17:18:16;;;;;;;5.43;1.00;;;2.90;99.90;;;;;;8197796;28;20283;-68
2023/12/22 17:22:17;;;;;;;5.13;1.00;;;2.80;99.90;;;;;;8213687;28;20192;-67
2023/12/22 17:26:18;;;;;;;2.97;0.97;;;2.90;99.90;;;;;;8191847;28;20223;-65
2023/12/22 17:30:21;;;;;;;3.57;1.30;;;2.90;99.90;;;;;;8199569;28;20204;-66
2023/12/22 17:34:25;;;;;;;2.93;1.40;;;2.80;99.90;;;;;;8198629;28;20276;-66
2023/12/22 17:38:26;;;;;;;2.83;1.13;;;2.80;99.90;;;;;;8198567;28;20196;-66
2023/12/22 17:42:27;;;;;;;4.30;1.20;;;2.90;99.90;;;;;;8195264;28;20197;-65
2023/12/22 17:46:27;;;;;;;2.83;0.77;;;2.80;1.00;;;;;;8203908;28;20205;-68
2023/12/22 17:50:28;;;;;;;2.80;1.20;;;2.80;1.00;;;;;;8198465;28;20221;-68
2023/12/22 17:54:29;;;;;;;6.13;1.03;;;2.90;1.00;;;;;;8193648;28;20189;-65
2023/12/22 17:58:30;;;;;;;9.20;5.97;;;2.80;1.00;;;;;;8203414;28;20187;-69
2023/12/22 18:02:31;;;;;;;6.63;1.63;;;2.80;1.00;;;;;;8190557;28;20252;-70
2023/12/22 18:06:31;;;;;;;2.03;1.20;;;2.80;1.00;;;;;;8186644;28;20247;-66
2023/12/22 18:10:33;;;;;;;2.47;1.20;;;2.90;1.00;;;;;;8198599;28;20246;-68
2023/12/22 18:14:34;;;;;;;3.97;1.00;;;2.90;1.00;;;;;;8191486;28;20609;-68
2023/12/22 18:18:34;;;;;;;3.83;1.10;;;2.90;1.00;;;;;;8196391;28;20601;-68
2023/12/22 18:22:35;;;;;;;3.40;1.00;;;2.90;1.00;;;;;;8197673;28;20216;-68
2023/12/22 18:26:38;;;;;;;4.73;1.17;;;2.90;1.00;;;;;;8202107;28;20193;-68
2023/12/22 18:30:39;;;;;;;3.93;1.20;;;2.90;1.00;;;;;;8208211;28;20211;-69
2023/12/22 18:34:40;;;;;;;2.17;0.83;;;3.00;1.00;;;;;;8204276;28;20177;-65
2023/12/22 18:38:40;;;;;;;2.33;0.80;;;2.90;1.00;;;;;;8202764;28;20189;-65
2023/12/22 18:42:41;;;;;;;2.17;0.90;;;2.90;1.00;;;;;;8197471;28;20200;-63
2023/12/22 18:46:42;;;;;;;4.07;1.10;;;2.90;1.00;;;;;;8210299;28;20190;-64
2023/12/22 18:50:43;;;;;;;4.37;0.90;;;2.80;1.00;;;;;;8199679;28;20216;-64
2023/12/22 18:54:44;;;;;;;1.90;0.80;;;2.80;1.00;;;;;;8205566;28;20237;-64
2023/12/22 18:58:45;;;;;;;2.23;1.20;;;2.90;1.00;;;;;;8206118;28;20189;-66
2023/12/22 19:02:46;;;;;;;3.50;1.30;;;2.90;1.00;;;;;;8198529;28;20188;-63
2023/12/22 19:06:47;;;;;;;2.57;1.00;;;2.90;1.00;;;;;;8207868;28;20212;-67
2023/12/22 19:10:47;;;;;;;2.80;1.27;;;3.00;1.00;;;;;;8199332;28;20217;-66
2023/12/22 19:14:49;;;;;;;2.03;1.13;;;2.90;1.00;;;;;;8206849;28;20196;-66
2023/12/22 19:18:50;;;;;;;1.83;1.10;;;2.90;1.00;;;;;;8220498;28;20213;-65
2023/12/22 19:22:51;;;;;;;4.07;1.17;;;2.90;1.00;;;;;;8199532;28;20183;-66
2023/12/22 19:26:52;;;;;;;2.57;0.60;;;2.90;1.00;;;;;;8207855;28;20281;-66
2023/12/22 19:30:52;;;;;;;4.77;0.90;;;2.90;1.00;;;;;;8202816;28;20223;-67
2023/12/22 19:34:53;;;;;;;2.47;0.90;;;2.90;1.00;;;;;;8207265;28;20181;-67
2023/12/22 19:38:54;;;;;;;5.30;1.17;;;2.90;1.00;;;;;;8202363;28;20181;-67
2023/12/22 19:42:56;;;;;;;4.33;0.90;;;3.00;1.00;;;;;;8198606;28;20203;-66
2023/12/22 19:47:00;;;;;;;5.03;1.10;;;3.00;1.00;;;;;;8199114;28;20273;-64
2023/12/22 19:51:00;;;;;;;2.03;0.80;;;3.00;99.90;;;;;;8206886;28;20218;-64
2023/12/22 19:55:02;;;;;;;3.20;1.30;;;3.00;99.90;;;;;;8204199;28;20249;-66
2023/12/22 19:59:03;;;;;;;4.70;1.17;;;3.00;99.90;;;;;;8213808;28;20248;-65
2023/12/22 20:03:04;;;;;;;1.67;0.77;;;3.10;99.90;;;;;;8203533;28;20189;-67
2023/12/22 20:07:05;;;;;;;3.43;1.23;;;3.00;1.00;;;;;;8208638;28;20194;-67
2023/12/22 20:11:05;;;;;;;1.63;1.00;;;3.00;1.00;;;;;;8208765;28;20216;-66
2023/12/22 20:15:08;;;;;;;3.97;1.37;;;3.10;99.90;;;;;;8210684;28;20237;-67
2023/12/22 20:19:09;;;;;;;3.70;1.30;;;3.00;99.90;;;;;;8219648;28;20185;-64
2023/12/22 20:23:10;;;;;;;1.40;0.70;;;3.00;99.90;;;;;;8209388;28;20199;-66
2023/12/22 20:27:12;;;;;;;3.27;1.13;;;3.00;99.90;;;;;;8211593;28;20280;-67
2023/12/22 20:31:12;;;;;;;3.00;1.13;;;3.00;99.90;;;;;;8222827;28;20217;-65
2023/12/22 20:35:14;;;;;;;2.67;0.93;;;3.00;99.90;;;;;;8208016;28;20248;-64
2023/12/22 20:39:16;;;;;;;5.07;1.33;;;3.10;99.90;;;;;;8206764;28;20196;-65
2023/12/22 20:43:17;;;;;;;4.47;1.30;;;3.10;99.90;;;;;;8208734;28;20208;-65
2023/12/22 20:47:18;;;;;;;3.80;0.80;;;3.10;99.90;;;;;;8209481;28;20193;-65
2023/12/22 20:51:19;;;;;;;5.77;1.10;;;3.00;99.90;;;;;;8201483;28;20209;-67
2023/12/22 20:55:19;;;;;;;4.87;0.67;;;3.00;99.90;;;;;;8210919;28;20248;-67
2023/12/22 20:59:20;;;;;;;3.83;1.23;;;3.00;99.90;;;;;;8200859;28;20199;-67
2023/12/22 21:03:21;;;;;;;2.80;0.90;;;3.00;99.90;;;;;;8207810;28;20215;-67
2023/12/22 21:07:23;;;;;;;3.00;0.77;;;2.90;99.90;;;;;;8211831;28;20196;-65
2023/12/22 21:11:25;;;;;;;5.53;1.20;;;2.90;99.90;;;;;;8201908;28;20341;-68
2023/12/22 21:15:25;;;;;;;4.33;1.20;;;2.80;99.90;;;;;;8212431;28;20204;-68
2023/12/22 21:19:26;;;;;;;3.70;1.07;;;2.80;99.90;;;;;;8199659;28;20184;-65
2023/12/22 21:23:27;;;;;;;5.40;1.20;;;2.80;99.90;;;;;;8200935;28;20228;-65
2023/12/22 21:27:28;;;;;;;6.93;1.00;;;2.80;99.90;;;;;;8205526;28;20235;-65
2023/12/22 21:31:29;;;;;;;2.17;0.93;;;2.80;99.90;;;;;;8203401;28;20227;-66
2023/12/22 21:35:29;;;;;;;4.20;1.00;;;2.80;99.90;;;;;;8199375;28;20222;-66
2023/12/22 21:39:31;;;;;;;3.33;0.80;;;2.80;99.90;;;;;;8202528;28;20180;-68
2023/12/22 21:43:32;;;;;;;1.43;0.73;;;2.80;99.90;;;;;;8208134;28;20184;-66
2023/12/22 21:47:33;;;;;;;5.87;1.13;;;2.70;1.00;;;;;;8206997;28;20184;-66
2023/12/22 21:51:34;;;;;;;2.97;0.93;;;2.80;1.00;;;;;;8207824;28;21211;-67
2023/12/22 21:55:35;;;;;;;2.67;1.07;;;2.80;1.00;;;;;;8216521;28;20184;-68
2023/12/22 21:59:37;;;;;;;3.47;1.27;;;2.80;1.00;;;;;;8208947;28;20304;-66
2023/12/22 22:03:38;;;;;;;7.43;1.27;;;2.80;1.00;;;;;;8209450;28;20274;-65
2023/12/22 22:07:39;;;;;;;3.10;1.00;;;2.80;1.00;;;;;;8222624;28;20537;-65
2023/12/22 22:11:40;;;;;;;1.87;0.93;;;2.80;1.00;;;;;;8206569;28;20209;-66
2023/12/22 22:15:42;;;;;;;3.93;0.70;;;2.80;1.00;;;;;;8203485;28;20621;-65
2023/12/22 22:19:42;;;;;;;3.00;1.03;;;2.80;1.00;;;;;;8202841;28;20181;-67
2023/12/22 22:23:43;;;;;;;1.67;0.73;;;2.70;1.00;;;;;;8208680;28;20184;-66
2023/12/22 22:27:44;;;;;;;2.10;0.87;;;2.70;1.00;;;;;;8211227;28;20184;-67
2023/12/22 22:31:44;;;;;;;5.60;1.00;;;2.70;1.00;;;;;;8208532;28;20208;-67
2023/12/22 22:35:45;;;;;;;5.13;1.27;;;2.70;1.00;;;;;;8210236;28;20272;-69
2023/12/22 22:39:46;;;;;;;1.73;0.90;;;2.70;1.00;;;;;;8196365;28;20252;-70
2023/12/22 22:43:48;;;;;;;3.53;0.90;;;2.70;1.00;;;;;;8202946;28;20483;-66
2023/12/22 22:47:51;;;;;;;3.27;0.93;;;2.70;1.00;;;;;;8209105;28;20185;-67
2023/12/22 22:51:52;;;;;;;3.83;1.10;;;2.70;1.00;;;;;;8207301;28;20219;-68
2023/12/22 22:55:53;;;;;;;2.57;1.00;;;2.80;1.00;;;;;;8200017;28;20184;-66
2023/12/22 22:59:54;;;;;;;3.90;0.90;;;2.70;1.00;;;;;;8209058;28;20451;-66
2023/12/22 23:03:55;;;;;;;1.70;0.70;;;2.60;1.00;;;;;;8200967;28;20209;-64
2023/12/22 23:07:56;;;;;;;5.03;1.10;;;2.30;1.00;;;;;;8205273;28;20213;-68
2023/12/22 23:11:56;;;;;;;2.30;0.90;;;1.90;1.00;;;;;;8203463;28;20212;-65
2023/12/22 23:15:59;;;;;;;4.07;0.60;;;1.70;1.00;;;;;;8210681;28;20185;-65
2023/12/22 23:20:00;;;;;;;2.10;0.70;;;1.60;99.90;;;;;;8203879;28;20190;-65
2023/12/22 23:24:04;;;;;;;2.97;0.60;;;1.40;99.90;;;;;;8207194;28;20247;-65
2023/12/22 23:28:05;;;;;;;1.47;0.63;;;1.10;99.90;;;;;;8204384;28;20770;-65
2023/12/22 23:32:06;;;;;;;1.10;0.70;;;0.90;36.90;;;;;;8197520;28;20209;-65
2023/12/22 23:36:07;;;;;;;2.83;0.73;;;0.70;99.90;;;;;;8198925;28;20192;-65
2023/12/22 23:40:08;;;;;;;0.77;0.53;;;0.60;1.00;;;;;;8207580;28;20261;-68
2023/12/22 23:44:09;;;;;;;1.27;0.43;;;0.60;99.90;;;;;;8197362;28;20269;-67
2023/12/22 23:48:10;;;;;;;4.37;1.60;;;0.50;99.90;;;;;;8195289;28;20222;-67
2023/12/22 23:52:10;;;;;;;1.50;0.60;;;0.50;99.90;;;;;;8193398;28;20236;-67
2023/12/22 23:56:11;;;;;;;0.43;0.33;;;0.40;99.90;;;;;;8194632;28;20191;-66
